AWC57H LGKR-EGKK
Flight info
| Callsign | AWC57H |
|---|---|
| Flight time | 2h 54m |
| Altitude | 36000 |
| Route | OLGAT DCT ABADI DCT CRAYE DCT GISAM DCT IXONA DCT RESIA DCT ELMUR L613 HOC DCT LUL DCT RLP DCT ROTSI DCT KOTUN DCT NINAL DCT KESAX DCT KUNAV |
| Aircraft | A320/M-SDE3FGHIRWY/LB1 |
Departure
| Time | 2026-05-04 12:29 |
|---|---|
| Airport | Corfu Ioannis Kapodistrias International Airport (LGKR) |
Arrival
| Time | 2026-05-04 15:23 |
|---|---|
| Airport | London Gatwick Airport (EGKK) |
| Time | Latitude | Longitude | Altitude | Speed | Heading |
|---|---|---|---|---|---|
| 2026-05-04 11:48 | 39.60894 | 19.91303 | 10 ft | 0 kts | 78° |
| 2026-05-04 12:22 | 39.60893 | 19.91298 | 9 ft | 3 kts | 78° |
| 2026-05-04 12:22 | 39.60887 | 19.91265 | 9 ft | 2 kts | 78° |
| 2026-05-04 12:22 | 39.60883 | 19.91238 | 12 ft | 4 kts | 82° |
| 2026-05-04 12:23 | 39.60880 | 19.91203 | 11 ft | 4 kts | 78° |
| 2026-05-04 12:23 | 39.60871 | 19.91174 | 10 ft | 4 kts | 28° |
| 2026-05-04 12:23 | 39.60852 | 19.91174 | 9 ft | 4 kts | 348° |
| 2026-05-04 12:23 | 39.60845 | 19.91176 | 9 ft | 0 kts | 348° |
| 2026-05-04 12:26 | 39.60846 | 19.91176 | 9 ft | 1 kts | 348° |
| 2026-05-04 12:26 | 39.60865 | 19.91171 | 9 ft | 6 kts | 348° |
| 2026-05-04 12:26 | 39.60925 | 19.91155 | 9 ft | 11 kts | 349° |
| 2026-05-04 12:26 | 39.61002 | 19.91137 | 9 ft | 12 kts | 349° |
| 2026-05-04 12:27 | 39.61088 | 19.91113 | 10 ft | 13 kts | 347° |
| 2026-05-04 12:27 | 39.61175 | 19.91092 | 10 ft | 11 kts | 350° |
| 2026-05-04 12:27 | 39.61222 | 19.91022 | 10 ft | 12 kts | 274° |
| 2026-05-04 12:27 | 39.61171 | 19.90962 | 10 ft | 5 kts | 173° |
| 2026-05-04 12:28 | 39.61170 | 19.90962 | 10 ft | 0 kts | 167° |
| 2026-05-04 12:28 | 39.61167 | 19.90963 | 10 ft | 3 kts | 167° |
| 2026-05-04 12:28 | 39.60938 | 19.91023 | 9 ft | 70 kts | 169° |
| 2026-05-04 12:28 | 39.60267 | 19.91195 | 10 ft | 123 kts | 168° |
| 2026-05-04 12:29 | 39.59297 | 19.91458 | 122 ft | 152 kts | 167° |
| 2026-05-04 12:29 | 39.58297 | 19.91772 | 739 ft | 147 kts | 153° |
| 2026-05-04 12:29 | 39.57535 | 19.92655 | 1230 ft | 150 kts | 117° |
| 2026-05-04 12:29 | 39.57312 | 19.93963 | 1483 ft | 167 kts | 83° |
| 2026-05-04 12:30 | 39.57783 | 19.95508 | 1427 ft | 205 kts | 45° |
| 2026-05-04 12:30 | 39.59090 | 19.96320 | 1652 ft | 220 kts | 358° |
| 2026-05-04 12:30 | 39.60473 | 19.95715 | 2317 ft | 214 kts | 315° |
| 2026-05-04 12:30 | 39.61175 | 19.94073 | 3011 ft | 213 kts | 278° |
| 2026-05-04 12:31 | 39.61212 | 19.92140 | 3697 ft | 217 kts | 267° |
| 2026-05-04 12:31 | 39.60891 | 19.90217 | 4332 ft | 227 kts | 246° |
| 2026-05-04 12:31 | 39.60122 | 19.88309 | 4646 ft | 251 kts | 244° |
| 2026-05-04 12:31 | 39.59367 | 19.86178 | 5119 ft | 266 kts | 251° |
| 2026-05-04 12:32 | 39.58991 | 19.83826 | 5812 ft | 269 kts | 275° |
| 2026-05-04 12:32 | 39.60688 | 19.79680 | 7333 ft | 268 kts | 318° |
| 2026-05-04 12:32 | 39.62041 | 19.78014 | 8175 ft | 269 kts | 318° |
| 2026-05-04 12:33 | 39.63408 | 19.76332 | 8978 ft | 272 kts | 319° |
| 2026-05-04 12:33 | 39.64784 | 19.74640 | 9745 ft | 274 kts | 319° |
| 2026-05-04 12:33 | 39.66177 | 19.72925 | 10388 ft | 282 kts | 319° |
| 2026-05-04 12:33 | 39.67659 | 19.71103 | 10543 ft | 305 kts | 319° |
| 2026-05-04 12:34 | 39.69245 | 19.69146 | 10841 ft | 321 kts | 319° |
| 2026-05-04 12:34 | 39.70874 | 19.67129 | 11414 ft | 325 kts | 319° |
| 2026-05-04 12:34 | 39.72521 | 19.65088 | 12054 ft | 328 kts | 319° |
| 2026-05-04 12:34 | 39.74178 | 19.63033 | 12708 ft | 330 kts | 319° |
| 2026-05-04 12:35 | 39.75844 | 19.60965 | 13367 ft | 333 kts | 319° |
| 2026-05-04 12:35 | 39.77529 | 19.58874 | 14012 ft | 336 kts | 319° |
| 2026-05-04 12:35 | 39.79222 | 19.56770 | 14596 ft | 337 kts | 319° |
| 2026-05-04 12:35 | 39.80922 | 19.54653 | 15182 ft | 339 kts | 319° |
| 2026-05-04 12:36 | 39.82629 | 19.52528 | 15777 ft | 340 kts | 319° |
| 2026-05-04 12:36 | 39.84339 | 19.50399 | 16361 ft | 341 kts | 319° |
| 2026-05-04 12:36 | 39.86059 | 19.48255 | 16948 ft | 343 kts | 319° |
| 2026-05-04 12:36 | 39.87784 | 19.46100 | 17536 ft | 344 kts | 319° |
| 2026-05-04 12:37 | 39.89518 | 19.43935 | 18066 ft | 347 kts | 319° |
| 2026-05-04 12:37 | 39.91247 | 19.41782 | 18600 ft | 350 kts | 319° |
| 2026-05-04 12:37 | 39.93040 | 19.39552 | 19112 ft | 352 kts | 319° |
| 2026-05-04 12:37 | 39.94792 | 19.37364 | 19625 ft | 355 kts | 319° |
| 2026-05-04 12:38 | 39.96578 | 19.35129 | 20140 ft | 357 kts | 319° |
| 2026-05-04 12:38 | 39.98375 | 19.32879 | 20667 ft | 359 kts | 319° |
| 2026-05-04 12:38 | 40.00180 | 19.30616 | 21173 ft | 362 kts | 319° |
| 2026-05-04 12:38 | 40.02003 | 19.28327 | 21674 ft | 364 kts | 319° |
| 2026-05-04 12:39 | 40.03832 | 19.26030 | 22150 ft | 366 kts | 319° |
| 2026-05-04 12:39 | 40.05676 | 19.23720 | 22615 ft | 369 kts | 319° |
| 2026-05-04 12:39 | 40.07529 | 19.21393 | 23089 ft | 371 kts | 319° |
| 2026-05-04 12:39 | 40.09396 | 19.19046 | 23558 ft | 373 kts | 318° |
| 2026-05-04 12:40 | 40.11274 | 19.16681 | 23954 ft | 375 kts | 318° |
| 2026-05-04 12:40 | 40.13159 | 19.14302 | 24339 ft | 377 kts | 318° |
| 2026-05-04 12:40 | 40.15048 | 19.11919 | 24699 ft | 378 kts | 318° |
| 2026-05-04 12:40 | 40.16951 | 19.09521 | 25032 ft | 381 kts | 318° |
| 2026-05-04 12:41 | 40.18868 | 19.07108 | 25384 ft | 383 kts | 318° |
| 2026-05-04 12:41 | 40.20790 | 19.04681 | 25744 ft | 385 kts | 318° |
| 2026-05-04 12:41 | 40.22715 | 19.02242 | 26104 ft | 386 kts | 318° |
| 2026-05-04 12:41 | 40.24752 | 18.99971 | 26455 ft | 386 kts | 326° |
| 2026-05-04 12:42 | 40.27060 | 18.98185 | 26802 ft | 386 kts | 332° |
| 2026-05-04 12:42 | 40.29443 | 18.96538 | 27144 ft | 388 kts | 332° |
| 2026-05-04 12:42 | 40.31025 | 18.95443 | 27369 ft | 389 kts | 332° |
| 2026-05-04 12:42 | 40.33421 | 18.93778 | 27711 ft | 390 kts | 332° |
| 2026-05-04 12:43 | 40.35820 | 18.92104 | 28049 ft | 392 kts | 332° |
| 2026-05-04 12:43 | 40.38231 | 18.90418 | 28390 ft | 393 kts | 332° |
| 2026-05-04 12:43 | 40.40649 | 18.88724 | 28720 ft | 395 kts | 332° |
| 2026-05-04 12:43 | 40.43865 | 18.86470 | 29170 ft | 396 kts | 332° |
| 2026-05-04 12:44 | 40.45507 | 18.85318 | 29475 ft | 395 kts | 332° |
| 2026-05-04 12:44 | 40.47930 | 18.83618 | 29968 ft | 393 kts | 332° |
| 2026-05-04 12:44 | 40.50338 | 18.81928 | 30400 ft | 392 kts | 332° |
| 2026-05-04 12:44 | 40.52705 | 18.80263 | 30794 ft | 390 kts | 331° |
| 2026-05-04 12:45 | 40.55090 | 18.78582 | 31190 ft | 389 kts | 331° |
| 2026-05-04 12:45 | 40.57469 | 18.76906 | 31532 ft | 388 kts | 331° |
| 2026-05-04 12:45 | 40.59856 | 18.75230 | 31859 ft | 389 kts | 331° |
| 2026-05-04 12:45 | 40.62241 | 18.73556 | 32225 ft | 388 kts | 331° |
| 2026-05-04 12:46 | 40.64620 | 18.71883 | 32612 ft | 387 kts | 330° |
| 2026-05-04 12:46 | 40.66989 | 18.70212 | 33006 ft | 386 kts | 330° |
| 2026-05-04 12:46 | 40.69354 | 18.68541 | 33391 ft | 385 kts | 330° |
| 2026-05-04 12:46 | 40.71708 | 18.66876 | 33781 ft | 383 kts | 330° |
| 2026-05-04 12:47 | 40.74062 | 18.65210 | 34149 ft | 382 kts | 330° |
| 2026-05-04 12:47 | 40.76398 | 18.63557 | 34449 ft | 382 kts | 330° |
| 2026-05-04 12:47 | 40.78754 | 18.61929 | 34712 ft | 382 kts | 331° |
| 2026-05-04 12:47 | 40.81114 | 18.60331 | 34963 ft | 382 kts | 332° |
| 2026-05-04 12:48 | 40.83482 | 18.58742 | 35208 ft | 382 kts | 332° |
| 2026-05-04 12:48 | 40.85854 | 18.57152 | 35435 ft | 382 kts | 332° |
| 2026-05-04 12:48 | 40.88226 | 18.55560 | 35669 ft | 383 kts | 332° |
| 2026-05-04 12:48 | 40.90598 | 18.53959 | 35889 ft | 383 kts | 332° |
| 2026-05-04 12:49 | 40.92968 | 18.52348 | 36084 ft | 384 kts | 332° |
| 2026-05-04 12:49 | 40.97763 | 18.49075 | 36140 ft | 393 kts | 332° |
| 2026-05-04 12:50 | 41.02655 | 18.45726 | 36139 ft | 398 kts | 332° |
| 2026-05-04 12:50 | 41.07575 | 18.42358 | 36126 ft | 399 kts | 331° |
| 2026-05-04 12:51 | 41.12482 | 18.38998 | 36151 ft | 400 kts | 332° |
| 2026-05-04 12:51 | 41.17432 | 18.35602 | 36136 ft | 401 kts | 332° |
| 2026-05-04 12:52 | 41.22419 | 18.32179 | 36145 ft | 401 kts | 332° |
| 2026-05-04 12:52 | 41.27343 | 18.28792 | 36141 ft | 401 kts | 331° |
| 2026-05-04 12:53 | 41.32304 | 18.25371 | 36145 ft | 401 kts | 331° |
| 2026-05-04 12:53 | 41.37257 | 18.21937 | 36146 ft | 401 kts | 331° |
| 2026-05-04 12:54 | 41.42215 | 18.18503 | 36158 ft | 401 kts | 331° |
| 2026-05-04 12:54 | 41.47174 | 18.15073 | 36145 ft | 402 kts | 331° |
| 2026-05-04 12:55 | 41.52018 | 18.11391 | 36154 ft | 401 kts | 326° |
| 2026-05-04 12:55 | 41.56661 | 18.07269 | 36149 ft | 401 kts | 326° |
| 2026-05-04 12:56 | 41.61314 | 18.03146 | 36161 ft | 401 kts | 326° |
| 2026-05-04 12:56 | 41.65960 | 17.99016 | 36154 ft | 401 kts | 326° |
| 2026-05-04 12:57 | 41.70612 | 17.94886 | 36151 ft | 401 kts | 326° |
| 2026-05-04 12:57 | 41.75260 | 17.90742 | 36157 ft | 401 kts | 326° |
| 2026-05-04 12:58 | 41.79895 | 17.86596 | 36148 ft | 401 kts | 326° |
| 2026-05-04 12:58 | 41.84508 | 17.82460 | 36161 ft | 401 kts | 326° |
| 2026-05-04 12:59 | 41.89155 | 17.78296 | 36155 ft | 402 kts | 326° |
| 2026-05-04 12:59 | 41.93524 | 17.73652 | 36137 ft | 402 kts | 315° |
| 2026-05-04 13:00 | 41.97487 | 17.68334 | 36134 ft | 402 kts | 315° |
| 2026-05-04 13:00 | 42.01453 | 17.63017 | 36132 ft | 403 kts | 315° |
| 2026-05-04 13:01 | 42.05416 | 17.57699 | 36142 ft | 403 kts | 315° |
| 2026-05-04 13:01 | 42.09387 | 17.52362 | 36145 ft | 403 kts | 315° |
| 2026-05-04 13:02 | 42.13356 | 17.47011 | 36150 ft | 404 kts | 315° |
| 2026-05-04 13:02 | 42.17323 | 17.41645 | 36150 ft | 404 kts | 315° |
| 2026-05-04 13:03 | 42.21286 | 17.36269 | 36128 ft | 404 kts | 315° |
| 2026-05-04 13:03 | 42.25229 | 17.30927 | 36132 ft | 405 kts | 315° |
| 2026-05-04 13:04 | 42.29201 | 17.25527 | 36142 ft | 405 kts | 315° |
| 2026-05-04 13:04 | 42.33175 | 17.20121 | 36145 ft | 405 kts | 315° |
| 2026-05-04 13:05 | 42.37149 | 17.14705 | 36136 ft | 406 kts | 315° |
| 2026-05-04 13:05 | 42.41121 | 17.09278 | 36140 ft | 406 kts | 315° |
| 2026-05-04 13:06 | 42.45092 | 17.03838 | 36119 ft | 406 kts | 314° |
| 2026-05-04 13:06 | 42.49066 | 16.98380 | 36123 ft | 407 kts | 314° |
| 2026-05-04 13:07 | 42.53045 | 16.92911 | 36131 ft | 407 kts | 314° |
| 2026-05-04 13:07 | 42.57027 | 16.87441 | 36139 ft | 408 kts | 314° |
| 2026-05-04 13:08 | 42.60982 | 16.81979 | 36136 ft | 408 kts | 314° |
| 2026-05-04 13:08 | 42.64953 | 16.76474 | 36135 ft | 408 kts | 314° |
| 2026-05-04 13:09 | 42.68934 | 16.70960 | 36133 ft | 408 kts | 314° |
| 2026-05-04 13:09 | 42.72914 | 16.65441 | 36127 ft | 409 kts | 314° |
| 2026-05-04 13:10 | 42.76897 | 16.59901 | 36125 ft | 410 kts | 314° |
| 2026-05-04 13:10 | 42.80880 | 16.54353 | 36119 ft | 410 kts | 314° |
| 2026-05-04 13:11 | 42.84870 | 16.48789 | 36139 ft | 410 kts | 314° |
| 2026-05-04 13:11 | 42.88857 | 16.43210 | 36127 ft | 411 kts | 314° |
| 2026-05-04 13:12 | 42.92832 | 16.37623 | 36131 ft | 411 kts | 314° |
| 2026-05-04 13:12 | 42.96818 | 16.32029 | 36111 ft | 411 kts | 313° |
| 2026-05-04 13:13 | 43.00812 | 16.26423 | 36117 ft | 412 kts | 313° |
| 2026-05-04 13:13 | 43.04808 | 16.20799 | 36111 ft | 413 kts | 313° |
| 2026-05-04 13:14 | 43.08798 | 16.15156 | 36123 ft | 413 kts | 313° |
| 2026-05-04 13:14 | 43.12792 | 16.09494 | 36142 ft | 413 kts | 313° |
| 2026-05-04 13:15 | 43.16781 | 16.03831 | 36133 ft | 413 kts | 313° |
| 2026-05-04 13:15 | 43.20768 | 15.98147 | 36132 ft | 413 kts | 313° |
| 2026-05-04 13:16 | 43.24761 | 15.92458 | 36128 ft | 414 kts | 313° |
| 2026-05-04 13:16 | 43.28773 | 15.86757 | 36126 ft | 415 kts | 313° |
| 2026-05-04 13:17 | 43.32771 | 15.81046 | 36127 ft | 415 kts | 313° |
| 2026-05-04 13:17 | 43.36771 | 15.75305 | 36137 ft | 416 kts | 313° |
| 2026-05-04 13:18 | 43.40773 | 15.69558 | 36137 ft | 416 kts | 313° |
| 2026-05-04 13:18 | 43.44775 | 15.63797 | 36136 ft | 416 kts | 313° |
| 2026-05-04 13:19 | 43.48774 | 15.58024 | 36135 ft | 417 kts | 313° |
| 2026-05-04 13:19 | 43.52780 | 15.52234 | 36135 ft | 418 kts | 313° |
| 2026-05-04 13:20 | 43.56788 | 15.46437 | 36136 ft | 418 kts | 313° |
| 2026-05-04 13:20 | 43.60775 | 15.40653 | 36139 ft | 419 kts | 313° |
| 2026-05-04 13:21 | 43.64789 | 15.34826 | 36126 ft | 419 kts | 313° |
| 2026-05-04 13:21 | 43.68803 | 15.28981 | 36139 ft | 419 kts | 313° |
| 2026-05-04 13:22 | 43.72811 | 15.23126 | 36126 ft | 420 kts | 312° |
| 2026-05-04 13:22 | 43.76828 | 15.17245 | 36118 ft | 420 kts | 312° |
| 2026-05-04 13:23 | 43.80841 | 15.11365 | 36120 ft | 421 kts | 312° |
| 2026-05-04 13:23 | 43.84857 | 15.05466 | 36118 ft | 421 kts | 312° |
| 2026-05-04 13:24 | 43.88874 | 14.99559 | 36119 ft | 421 kts | 312° |
| 2026-05-04 13:24 | 43.92890 | 14.93638 | 36133 ft | 421 kts | 312° |
| 2026-05-04 13:25 | 43.98905 | 14.84740 | 36126 ft | 421 kts | 311° |
| 2026-05-04 13:25 | 44.02916 | 14.78792 | 36116 ft | 421 kts | 311° |
| 2026-05-04 13:26 | 44.06893 | 14.72869 | 36130 ft | 422 kts | 311° |
| 2026-05-04 13:26 | 44.10900 | 14.66900 | 36114 ft | 422 kts | 311° |
| 2026-05-04 13:27 | 44.14912 | 14.60918 | 36115 ft | 423 kts | 311° |
| 2026-05-04 13:27 | 44.18250 | 14.55939 | 36120 ft | 423 kts | 311° |
| 2026-05-04 13:28 | 44.22255 | 14.49944 | 36117 ft | 423 kts | 311° |
| 2026-05-04 13:28 | 44.26256 | 14.43926 | 36124 ft | 423 kts | 311° |
| 2026-05-04 13:29 | 44.30251 | 14.37912 | 36125 ft | 423 kts | 311° |
| 2026-05-04 13:29 | 44.34255 | 14.31885 | 36128 ft | 423 kts | 311° |
| 2026-05-04 13:30 | 44.38257 | 14.25846 | 36127 ft | 423 kts | 311° |
| 2026-05-04 13:30 | 44.42253 | 14.19791 | 36122 ft | 424 kts | 311° |
| 2026-05-04 13:31 | 44.46244 | 14.13728 | 36121 ft | 424 kts | 311° |
| 2026-05-04 13:31 | 44.50240 | 14.07649 | 36114 ft | 424 kts | 311° |
| 2026-05-04 13:32 | 44.54227 | 14.01560 | 36129 ft | 424 kts | 310° |
| 2026-05-04 13:32 | 44.58220 | 13.95458 | 36112 ft | 425 kts | 310° |
| 2026-05-04 13:33 | 44.62218 | 13.89340 | 36122 ft | 425 kts | 310° |
| 2026-05-04 13:33 | 44.66213 | 13.83209 | 36130 ft | 426 kts | 310° |
| 2026-05-04 13:34 | 44.70216 | 13.77064 | 36133 ft | 426 kts | 310° |
| 2026-05-04 13:34 | 44.74211 | 13.70907 | 36126 ft | 426 kts | 310° |
| 2026-05-04 13:35 | 44.80198 | 13.61648 | 36131 ft | 427 kts | 310° |
| 2026-05-04 13:36 | 44.84193 | 13.55440 | 36125 ft | 427 kts | 307° |
| 2026-05-04 13:36 | 44.87617 | 13.48705 | 36112 ft | 425 kts | 303° |
| 2026-05-04 13:37 | 44.91016 | 13.41801 | 36109 ft | 426 kts | 302° |
| 2026-05-04 13:37 | 44.94377 | 13.34978 | 36102 ft | 426 kts | 302° |
| 2026-05-04 13:38 | 44.97766 | 13.28100 | 36100 ft | 426 kts | 302° |
| 2026-05-04 13:38 | 45.01140 | 13.21219 | 36103 ft | 427 kts | 302° |
| 2026-05-04 13:39 | 45.04512 | 13.14300 | 36098 ft | 427 kts | 302° |
| 2026-05-04 13:39 | 45.07877 | 13.07384 | 36098 ft | 427 kts | 302° |
| 2026-05-04 13:40 | 45.11250 | 13.00468 | 36094 ft | 427 kts | 302° |
| 2026-05-04 13:40 | 45.14623 | 12.93533 | 36087 ft | 427 kts | 302° |
| 2026-05-04 13:41 | 45.17983 | 12.86587 | 36087 ft | 427 kts | 302° |
| 2026-05-04 13:41 | 45.21334 | 12.79630 | 36082 ft | 427 kts | 302° |
| 2026-05-04 13:42 | 45.26365 | 12.69174 | 36090 ft | 427 kts | 302° |
| 2026-05-04 13:42 | 45.29691 | 12.62251 | 36088 ft | 428 kts | 302° |
| 2026-05-04 13:43 | 45.33039 | 12.55257 | 36082 ft | 428 kts | 302° |
| 2026-05-04 13:43 | 45.36386 | 12.48257 | 36086 ft | 428 kts | 302° |
| 2026-05-04 13:44 | 45.39731 | 12.41244 | 36091 ft | 428 kts | 302° |
| 2026-05-04 13:44 | 45.43061 | 12.34233 | 36093 ft | 428 kts | 302° |
| 2026-05-04 13:45 | 45.46386 | 12.27211 | 36093 ft | 428 kts | 302° |
| 2026-05-04 13:45 | 45.49715 | 12.20175 | 36091 ft | 428 kts | 302° |
| 2026-05-04 13:46 | 45.53046 | 12.13119 | 36104 ft | 428 kts | 301° |
| 2026-05-04 13:46 | 45.56365 | 12.06052 | 36101 ft | 429 kts | 301° |
| 2026-05-04 13:47 | 45.59678 | 11.98982 | 36097 ft | 429 kts | 301° |
| 2026-05-04 13:47 | 45.62997 | 11.91906 | 36093 ft | 429 kts | 301° |
| 2026-05-04 13:48 | 45.66306 | 11.84830 | 36088 ft | 429 kts | 301° |
| 2026-05-04 13:48 | 45.69613 | 11.77727 | 36089 ft | 429 kts | 301° |
| 2026-05-04 13:49 | 45.72913 | 11.70618 | 36073 ft | 429 kts | 301° |
| 2026-05-04 13:49 | 45.76215 | 11.63488 | 36069 ft | 429 kts | 301° |
| 2026-05-04 13:50 | 45.79511 | 11.56343 | 36069 ft | 430 kts | 301° |
| 2026-05-04 13:50 | 45.82782 | 11.49248 | 36071 ft | 430 kts | 301° |
| 2026-05-04 13:51 | 45.86087 | 11.42085 | 36075 ft | 430 kts | 301° |
| 2026-05-04 13:51 | 45.89374 | 11.34923 | 36084 ft | 430 kts | 301° |
| 2026-05-04 13:52 | 45.94300 | 11.24144 | 36081 ft | 430 kts | 300° |
| 2026-05-04 13:53 | 45.97578 | 11.16950 | 36090 ft | 430 kts | 301° |
| 2026-05-04 13:53 | 46.00852 | 11.09753 | 36103 ft | 430 kts | 300° |
| 2026-05-04 13:54 | 46.05761 | 10.98927 | 36123 ft | 431 kts | 300° |
| 2026-05-04 13:55 | 46.10663 | 10.88053 | 36128 ft | 431 kts | 300° |
| 2026-05-04 13:55 | 46.15548 | 10.77213 | 36131 ft | 432 kts | 300° |
| 2026-05-04 13:56 | 46.18829 | 10.69890 | 36118 ft | 432 kts | 300° |
| 2026-05-04 13:57 | 46.23692 | 10.59000 | 36095 ft | 432 kts | 300° |
| 2026-05-04 13:58 | 46.30203 | 10.44381 | 36108 ft | 432 kts | 300° |
| 2026-05-04 13:58 | 46.35071 | 10.33400 | 36107 ft | 432 kts | 299° |
| 2026-05-04 13:59 | 46.38302 | 10.26074 | 36120 ft | 431 kts | 299° |
| 2026-05-04 14:00 | 46.43137 | 10.15087 | 36142 ft | 431 kts | 299° |
| 2026-05-04 14:00 | 46.48018 | 10.04134 | 36161 ft | 433 kts | 304° |
| 2026-05-04 14:01 | 46.51978 | 9.97532 | 36162 ft | 434 kts | 308° |
| 2026-05-04 14:02 | 46.57979 | 9.87659 | 36157 ft | 434 kts | 308° |
| 2026-05-04 14:02 | 46.61971 | 9.81075 | 36151 ft | 434 kts | 308° |
| 2026-05-04 14:03 | 46.65941 | 9.74504 | 36149 ft | 434 kts | 308° |
| 2026-05-04 14:03 | 46.69934 | 9.67896 | 36143 ft | 434 kts | 307° |
| 2026-05-04 14:04 | 46.75890 | 9.57966 | 36100 ft | 434 kts | 307° |
| 2026-05-04 14:04 | 46.79862 | 9.51332 | 36090 ft | 433 kts | 308° |
| 2026-05-04 14:05 | 46.85805 | 9.41362 | 36056 ft | 434 kts | 307° |
| 2026-05-04 14:06 | 46.89768 | 9.34715 | 36036 ft | 434 kts | 307° |
| 2026-05-04 14:06 | 46.93701 | 9.28105 | 36018 ft | 434 kts | 307° |
| 2026-05-04 14:07 | 46.97656 | 9.21437 | 36021 ft | 434 kts | 307° |
| 2026-05-04 14:07 | 47.01608 | 9.14748 | 36024 ft | 434 kts | 307° |
| 2026-05-04 14:08 | 47.05549 | 9.08043 | 36013 ft | 434 kts | 307° |
| 2026-05-04 14:08 | 47.09483 | 9.01338 | 36025 ft | 434 kts | 307° |
| 2026-05-04 14:09 | 47.15206 | 8.91083 | 36004 ft | 429 kts | 297° |
| 2026-05-04 14:10 | 47.18647 | 8.79130 | 35989 ft | 423 kts | 287° |
| 2026-05-04 14:10 | 47.20722 | 8.71024 | 35986 ft | 424 kts | 287° |
| 2026-05-04 14:11 | 47.22442 | 8.64274 | 35997 ft | 424 kts | 287° |
| 2026-05-04 14:11 | 47.25522 | 8.52053 | 35981 ft | 425 kts | 286° |
| 2026-05-04 14:12 | 47.27577 | 8.43876 | 35984 ft | 426 kts | 287° |
| 2026-05-04 14:13 | 47.30663 | 8.31601 | 35990 ft | 425 kts | 286° |
| 2026-05-04 14:13 | 47.32709 | 8.23431 | 36000 ft | 425 kts | 286° |
| 2026-05-04 14:14 | 47.34740 | 8.15224 | 35999 ft | 425 kts | 286° |
| 2026-05-04 14:14 | 47.37776 | 8.02929 | 35991 ft | 426 kts | 286° |
| 2026-05-04 14:15 | 47.41792 | 7.86527 | 35998 ft | 426 kts | 285° |
| 2026-05-04 14:16 | 47.44805 | 7.74175 | 36004 ft | 426 kts | 285° |
| 2026-05-04 14:17 | 47.47482 | 7.61713 | 36009 ft | 423 kts | 280° |
| 2026-05-04 14:18 | 47.49600 | 7.49049 | 36027 ft | 423 kts | 279° |
| 2026-05-04 14:19 | 47.52400 | 7.32138 | 36014 ft | 423 kts | 279° |
| 2026-05-04 14:19 | 47.53788 | 7.23671 | 36019 ft | 423 kts | 279° |
| 2026-05-04 14:20 | 47.55178 | 7.15198 | 36028 ft | 424 kts | 279° |
| 2026-05-04 14:20 | 47.56567 | 7.06721 | 36047 ft | 424 kts | 279° |
| 2026-05-04 14:21 | 47.58632 | 6.93991 | 36043 ft | 424 kts | 279° |
| 2026-05-04 14:21 | 47.60000 | 6.85489 | 36048 ft | 424 kts | 279° |
| 2026-05-04 14:22 | 47.61362 | 6.76980 | 36044 ft | 424 kts | 279° |
| 2026-05-04 14:22 | 47.62721 | 6.68461 | 36055 ft | 424 kts | 278° |
| 2026-05-04 14:23 | 47.64736 | 6.55723 | 36042 ft | 425 kts | 278° |
| 2026-05-04 14:24 | 47.66077 | 6.47179 | 36040 ft | 425 kts | 278° |
| 2026-05-04 14:24 | 47.67413 | 6.38625 | 36040 ft | 426 kts | 278° |
| 2026-05-04 14:25 | 47.68748 | 6.30063 | 36065 ft | 426 kts | 278° |
| 2026-05-04 14:25 | 47.71292 | 6.17352 | 36049 ft | 430 kts | 283° |
| 2026-05-04 14:26 | 47.73201 | 6.08934 | 36046 ft | 430 kts | 283° |
| 2026-05-04 14:26 | 47.75046 | 6.00480 | 36039 ft | 430 kts | 282° |
| 2026-05-04 14:27 | 47.76814 | 5.91999 | 36037 ft | 429 kts | 282° |
| 2026-05-04 14:27 | 47.78572 | 5.83500 | 36042 ft | 430 kts | 282° |
| 2026-05-04 14:28 | 47.80328 | 5.75061 | 36035 ft | 430 kts | 282° |
| 2026-05-04 14:28 | 47.82096 | 5.66560 | 36025 ft | 430 kts | 282° |
| 2026-05-04 14:29 | 47.85614 | 5.49520 | 36043 ft | 431 kts | 282° |
| 2026-05-04 14:30 | 47.87358 | 5.40988 | 36014 ft | 431 kts | 282° |
| 2026-05-04 14:31 | 47.90068 | 5.28206 | 36011 ft | 435 kts | 288° |
| 2026-05-04 14:31 | 47.93332 | 5.20495 | 35992 ft | 448 kts | 307° |
| 2026-05-04 14:32 | 47.97519 | 5.13621 | 35992 ft | 449 kts | 307° |
| 2026-05-04 14:32 | 48.01722 | 5.06688 | 36007 ft | 449 kts | 307° |
| 2026-05-04 14:33 | 48.05903 | 4.99755 | 35998 ft | 450 kts | 307° |
| 2026-05-04 14:33 | 48.10098 | 4.92781 | 35986 ft | 450 kts | 307° |
| 2026-05-04 14:34 | 48.14291 | 4.85813 | 35988 ft | 450 kts | 307° |
| 2026-05-04 14:34 | 48.18481 | 4.78831 | 35983 ft | 451 kts | 307° |
| 2026-05-04 14:35 | 48.22671 | 4.71826 | 35974 ft | 451 kts | 307° |
| 2026-05-04 14:35 | 48.26857 | 4.64806 | 35993 ft | 451 kts | 307° |
| 2026-05-04 14:36 | 48.31042 | 4.57782 | 35983 ft | 451 kts | 307° |
| 2026-05-04 14:36 | 48.35190 | 4.50787 | 35983 ft | 451 kts | 307° |
| 2026-05-04 14:37 | 48.39361 | 4.43713 | 35982 ft | 452 kts | 307° |
| 2026-05-04 14:37 | 48.43530 | 4.36643 | 35981 ft | 452 kts | 307° |
| 2026-05-04 14:38 | 48.47699 | 4.29569 | 36003 ft | 452 kts | 307° |
| 2026-05-04 14:38 | 48.51877 | 4.22461 | 35992 ft | 452 kts | 307° |
| 2026-05-04 14:39 | 48.56039 | 4.15351 | 35986 ft | 452 kts | 307° |
| 2026-05-04 14:39 | 48.60195 | 4.08220 | 35988 ft | 452 kts | 307° |
| 2026-05-04 14:40 | 48.66408 | 3.97537 | 35989 ft | 452 kts | 307° |
| 2026-05-04 14:40 | 48.70558 | 3.90376 | 35989 ft | 452 kts | 306° |
| 2026-05-04 14:41 | 48.74786 | 3.83310 | 35987 ft | 454 kts | 310° |
| 2026-05-04 14:42 | 48.83923 | 3.70031 | 35973 ft | 455 kts | 311° |
| 2026-05-04 14:42 | 48.88462 | 3.63349 | 35972 ft | 454 kts | 311° |
| 2026-05-04 14:43 | 48.92950 | 3.56587 | 35972 ft | 454 kts | 310° |
| 2026-05-04 14:43 | 48.97429 | 3.49802 | 35993 ft | 454 kts | 310° |
| 2026-05-04 14:44 | 49.01923 | 3.43022 | 35984 ft | 455 kts | 311° |
| 2026-05-04 14:44 | 49.06420 | 3.36245 | 35985 ft | 455 kts | 311° |
| 2026-05-04 14:45 | 49.10916 | 3.29450 | 35979 ft | 455 kts | 311° |
| 2026-05-04 14:45 | 49.15398 | 3.22631 | 35976 ft | 454 kts | 310° |
| 2026-05-04 14:46 | 49.19867 | 3.15798 | 35975 ft | 454 kts | 310° |
| 2026-05-04 14:46 | 49.24317 | 3.09002 | 35995 ft | 455 kts | 311° |
| 2026-05-04 14:47 | 49.28824 | 3.02125 | 35986 ft | 454 kts | 311° |
| 2026-05-04 14:47 | 49.33263 | 2.95314 | 35983 ft | 454 kts | 311° |
| 2026-05-04 14:48 | 49.37723 | 2.88466 | 35971 ft | 454 kts | 311° |
| 2026-05-04 14:48 | 49.42168 | 2.81599 | 35988 ft | 453 kts | 310° |
| 2026-05-04 14:49 | 49.46612 | 2.74714 | 35974 ft | 453 kts | 310° |
| 2026-05-04 14:49 | 49.51053 | 2.67826 | 35991 ft | 453 kts | 311° |
| 2026-05-04 14:50 | 49.55488 | 2.60926 | 35980 ft | 453 kts | 311° |
| 2026-05-04 14:50 | 49.59919 | 2.54010 | 35981 ft | 454 kts | 310° |
| 2026-05-04 14:51 | 49.64162 | 2.46845 | 35972 ft | 452 kts | 307° |
| 2026-05-04 14:51 | 49.68175 | 2.39372 | 35972 ft | 451 kts | 305° |
| 2026-05-04 14:52 | 49.72145 | 2.31924 | 35748 ft | 452 kts | 306° |
| 2026-05-04 14:52 | 49.74190 | 2.28161 | 35495 ft | 452 kts | 306° |
| 2026-05-04 14:52 | 49.76197 | 2.24496 | 35273 ft | 452 kts | 306° |
| 2026-05-04 14:53 | 49.78233 | 2.20789 | 35032 ft | 452 kts | 306° |
| 2026-05-04 14:53 | 49.79607 | 2.18287 | 34869 ft | 452 kts | 306° |
| 2026-05-04 14:53 | 49.82299 | 2.13374 | 34550 ft | 450 kts | 306° |
| 2026-05-04 14:53 | 49.84315 | 2.09676 | 34312 ft | 449 kts | 306° |
| 2026-05-04 14:54 | 49.86320 | 2.05974 | 34075 ft | 447 kts | 305° |
| 2026-05-04 14:54 | 49.88316 | 2.02280 | 33818 ft | 446 kts | 305° |
| 2026-05-04 14:54 | 49.90300 | 1.98612 | 33545 ft | 444 kts | 306° |
| 2026-05-04 14:54 | 49.91610 | 1.96191 | 33327 ft | 441 kts | 306° |
| 2026-05-04 14:55 | 49.93570 | 1.92567 | 32837 ft | 437 kts | 306° |
| 2026-05-04 14:55 | 49.95518 | 1.88956 | 32329 ft | 434 kts | 306° |
| 2026-05-04 14:55 | 49.97447 | 1.85373 | 31835 ft | 431 kts | 306° |
| 2026-05-04 14:55 | 49.99363 | 1.81813 | 31366 ft | 428 kts | 307° |
| 2026-05-04 14:56 | 50.01271 | 1.78271 | 30863 ft | 426 kts | 307° |
| 2026-05-04 14:56 | 50.03168 | 1.74741 | 30377 ft | 424 kts | 307° |
| 2026-05-04 14:56 | 50.05057 | 1.71219 | 29873 ft | 422 kts | 307° |
| 2026-05-04 14:56 | 50.06962 | 1.67762 | 29397 ft | 420 kts | 311° |
| 2026-05-04 14:57 | 50.09107 | 1.64686 | 28941 ft | 417 kts | 316° |
| 2026-05-04 14:57 | 50.11291 | 1.61728 | 28511 ft | 414 kts | 316° |
| 2026-05-04 14:57 | 50.13453 | 1.58799 | 28074 ft | 411 kts | 316° |
| 2026-05-04 14:57 | 50.15604 | 1.55880 | 27652 ft | 408 kts | 316° |
| 2026-05-04 14:58 | 50.17734 | 1.52984 | 27238 ft | 405 kts | 316° |
| 2026-05-04 14:58 | 50.19854 | 1.50100 | 26829 ft | 403 kts | 316° |
| 2026-05-04 14:58 | 50.21930 | 1.47270 | 26435 ft | 400 kts | 316° |
| 2026-05-04 14:58 | 50.24017 | 1.44420 | 26041 ft | 398 kts | 316° |
| 2026-05-04 14:59 | 50.26100 | 1.41570 | 25626 ft | 397 kts | 316° |
| 2026-05-04 14:59 | 50.28174 | 1.38728 | 25218 ft | 396 kts | 316° |
| 2026-05-04 14:59 | 50.32307 | 1.33060 | 24413 ft | 393 kts | 316° |
| 2026-05-04 15:00 | 50.34360 | 1.30241 | 24009 ft | 392 kts | 316° |
| 2026-05-04 15:00 | 50.36407 | 1.27429 | 23551 ft | 391 kts | 316° |
| 2026-05-04 15:00 | 50.38451 | 1.24618 | 23060 ft | 390 kts | 316° |
| 2026-05-04 15:01 | 50.42500 | 1.19026 | 22141 ft | 386 kts | 316° |
| 2026-05-04 15:01 | 50.44504 | 1.16252 | 21669 ft | 383 kts | 317° |
| 2026-05-04 15:01 | 50.46499 | 1.13495 | 21218 ft | 381 kts | 317° |
| 2026-05-04 15:01 | 50.48484 | 1.10753 | 20766 ft | 378 kts | 317° |
| 2026-05-04 15:02 | 50.50455 | 1.08032 | 20308 ft | 375 kts | 317° |
| 2026-05-04 15:02 | 50.52326 | 1.05203 | 19882 ft | 371 kts | 311° |
| 2026-05-04 15:02 | 50.54079 | 1.02233 | 19434 ft | 369 kts | 311° |
| 2026-05-04 15:02 | 50.55822 | 0.99293 | 18994 ft | 367 kts | 312° |
| 2026-05-04 15:03 | 50.57557 | 0.96372 | 18545 ft | 364 kts | 312° |
| 2026-05-04 15:03 | 50.59284 | 0.93468 | 18092 ft | 362 kts | 312° |
| 2026-05-04 15:03 | 50.60993 | 0.90582 | 17654 ft | 359 kts | 312° |
| 2026-05-04 15:03 | 50.62683 | 0.87716 | 17206 ft | 355 kts | 312° |
| 2026-05-04 15:04 | 50.64353 | 0.84879 | 16775 ft | 352 kts | 312° |
| 2026-05-04 15:04 | 50.66005 | 0.82070 | 16350 ft | 348 kts | 312° |
| 2026-05-04 15:04 | 50.67641 | 0.79275 | 15926 ft | 346 kts | 311° |
| 2026-05-04 15:04 | 50.69221 | 0.76391 | 15336 ft | 348 kts | 309° |
| 2026-05-04 15:05 | 50.70746 | 0.73428 | 14767 ft | 349 kts | 308° |
| 2026-05-04 15:05 | 50.72240 | 0.70436 | 14270 ft | 344 kts | 307° |
| 2026-05-04 15:05 | 50.73704 | 0.67484 | 13611 ft | 337 kts | 307° |
| 2026-05-04 15:05 | 50.75132 | 0.64618 | 13038 ft | 326 kts | 308° |
| 2026-05-04 15:06 | 50.76520 | 0.61856 | 12511 ft | 316 kts | 307° |
| 2026-05-04 15:06 | 50.77884 | 0.59159 | 11995 ft | 312 kts | 308° |
| 2026-05-04 15:06 | 50.79225 | 0.56512 | 11484 ft | 314 kts | 308° |
| 2026-05-04 15:07 | 50.81961 | 0.51119 | 10788 ft | 308 kts | 308° |
| 2026-05-04 15:07 | 50.83278 | 0.48525 | 10657 ft | 298 kts | 308° |
| 2026-05-04 15:07 | 50.84566 | 0.45982 | 10349 ft | 296 kts | 308° |
| 2026-05-04 15:07 | 50.85850 | 0.43447 | 9986 ft | 295 kts | 308° |
| 2026-05-04 15:08 | 50.87123 | 0.40935 | 9374 ft | 291 kts | 308° |
| 2026-05-04 15:08 | 50.88386 | 0.38435 | 8778 ft | 288 kts | 308° |
| 2026-05-04 15:08 | 50.89619 | 0.35988 | 8260 ft | 281 kts | 308° |
| 2026-05-04 15:08 | 50.90833 | 0.33574 | 7838 ft | 280 kts | 308° |
| 2026-05-04 15:09 | 50.92048 | 0.31157 | 7511 ft | 278 kts | 308° |
| 2026-05-04 15:09 | 50.93235 | 0.28795 | 7392 ft | 269 kts | 308° |
| 2026-05-04 15:09 | 50.94384 | 0.26510 | 7262 ft | 260 kts | 308° |
| 2026-05-04 15:10 | 50.96572 | 0.22113 | 6862 ft | 250 kts | 308° |
| 2026-05-04 15:10 | 50.97638 | 0.19943 | 6610 ft | 248 kts | 308° |
| 2026-05-04 15:10 | 50.99753 | 0.15630 | 6046 ft | 247 kts | 308° |
| 2026-05-04 15:11 | 51.00794 | 0.13463 | 5658 ft | 249 kts | 304° |
| 2026-05-04 15:11 | 51.01571 | 0.10916 | 4962 ft | 265 kts | 288° |
| 2026-05-04 15:11 | 51.01887 | 0.07949 | 4255 ft | 280 kts | 274° |
| 2026-05-04 15:11 | 51.02003 | 0.04920 | 4020 ft | 274 kts | 275° |
| 2026-05-04 15:12 | 51.02127 | 0.01968 | 3972 ft | 261 kts | 275° |
| 2026-05-04 15:12 | 51.02248 | -0.00825 | 3997 ft | 246 kts | 274° |
| 2026-05-04 15:12 | 51.02362 | -0.03463 | 4000 ft | 235 kts | 274° |
| 2026-05-04 15:12 | 51.02474 | -0.06052 | 4003 ft | 234 kts | 275° |
| 2026-05-04 15:13 | 51.02584 | -0.08632 | 4004 ft | 235 kts | 274° |
| 2026-05-04 15:13 | 51.02693 | -0.11217 | 4006 ft | 234 kts | 275° |
| 2026-05-04 15:13 | 51.02800 | -0.13806 | 4006 ft | 234 kts | 274° |
| 2026-05-04 15:13 | 51.02907 | -0.16392 | 4005 ft | 234 kts | 275° |
| 2026-05-04 15:14 | 51.03014 | -0.18920 | 4002 ft | 226 kts | 275° |
| 2026-05-04 15:14 | 51.03118 | -0.21404 | 4005 ft | 225 kts | 275° |
| 2026-05-04 15:14 | 51.03221 | -0.23876 | 4006 ft | 224 kts | 274° |
| 2026-05-04 15:14 | 51.03319 | -0.26343 | 4006 ft | 224 kts | 275° |
| 2026-05-04 15:15 | 51.03419 | -0.28822 | 4005 ft | 224 kts | 274° |
| 2026-05-04 15:15 | 51.03519 | -0.31289 | 4004 ft | 224 kts | 275° |
| 2026-05-04 15:15 | 51.03618 | -0.33738 | 4004 ft | 225 kts | 275° |
| 2026-05-04 15:16 | 51.03815 | -0.38630 | 4000 ft | 215 kts | 274° |
| 2026-05-04 15:16 | 51.03908 | -0.40992 | 4003 ft | 214 kts | 274° |
| 2026-05-04 15:16 | 51.04093 | -0.45702 | 4002 ft | 213 kts | 274° |
| 2026-05-04 15:17 | 51.04186 | -0.48059 | 3999 ft | 213 kts | 275° |
| 2026-05-04 15:17 | 51.04523 | -0.52741 | 3576 ft | 211 kts | 298° |
| 2026-05-04 15:17 | 51.05524 | -0.54327 | 3397 ft | 204 kts | 339° |
| 2026-05-04 15:18 | 51.06883 | -0.54510 | 3272 ft | 198 kts | 11° |
| 2026-05-04 15:18 | 51.08231 | -0.54150 | 3090 ft | 194 kts | 10° |
| 2026-05-04 15:18 | 51.09447 | -0.53369 | 3000 ft | 187 kts | 38° |
| 2026-05-04 15:19 | 51.10529 | -0.49743 | 3005 ft | 187 kts | 77° |
| 2026-05-04 15:19 | 51.10811 | -0.47721 | 3003 ft | 186 kts | 77° |
| 2026-05-04 15:19 | 51.11375 | -0.43700 | 2998 ft | 186 kts | 77° |
| 2026-05-04 15:20 | 51.11649 | -0.41746 | 2860 ft | 177 kts | 77° |
| 2026-05-04 15:20 | 51.11914 | -0.39860 | 2663 ft | 172 kts | 77° |
| 2026-05-04 15:20 | 51.12170 | -0.38037 | 2450 ft | 169 kts | 77° |
| 2026-05-04 15:20 | 51.12420 | -0.36249 | 2224 ft | 162 kts | 78° |
| 2026-05-04 15:21 | 51.12659 | -0.34541 | 2019 ft | 155 kts | 78° |
| 2026-05-04 15:21 | 51.12892 | -0.32872 | 1815 ft | 153 kts | 78° |
| 2026-05-04 15:21 | 51.13344 | -0.29626 | 1410 ft | 148 kts | 78° |
| 2026-05-04 15:22 | 51.13567 | -0.28028 | 1204 ft | 148 kts | 78° |
| 2026-05-04 15:22 | 51.13789 | -0.26440 | 990 ft | 146 kts | 77° |
| 2026-05-04 15:22 | 51.14229 | -0.23295 | 574 ft | 144 kts | 76° |
| 2026-05-04 15:23 | 51.14446 | -0.21744 | 375 ft | 143 kts | 77° |
| 2026-05-04 15:23 | 51.14655 | -0.20206 | 223 ft | 139 kts | 76° |
| 2026-05-04 15:23 | 51.14819 | -0.19026 | 213 ft | 68 kts | 78° |
| 2026-05-04 15:23 | 51.14862 | -0.18714 | 208 ft | 10 kts | 72° |
| 2026-05-04 15:24 | 51.14967 | -0.18467 | 205 ft | 11 kts | 49° |
| 2026-05-04 15:24 | 51.15045 | -0.18307 | 204 ft | 10 kts | 53° |
| 2026-05-04 15:25 | 51.15090 | -0.18220 | 205 ft | 11 kts | 48° |
| 2026-05-04 15:25 | 51.15127 | -0.18108 | 210 ft | 13 kts | 78° |
| 2026-05-04 15:25 | 51.15147 | -0.17958 | 208 ft | 15 kts | 78° |
| 2026-05-04 15:26 | 51.15192 | -0.17636 | 209 ft | 14 kts | 77° |
| 2026-05-04 15:26 | 51.15213 | -0.17490 | 205 ft | 12 kts | 77° |
| 2026-05-04 15:26 | 51.15345 | -0.17373 | 205 ft | 15 kts | 346° |
| 2026-05-04 15:27 | 51.15452 | -0.17409 | 209 ft | 13 kts | 348° |
| 2026-05-04 15:27 | 51.15598 | -0.17357 | 209 ft | 13 kts | 75° |
| 2026-05-04 15:28 | 51.15642 | -0.17066 | 207 ft | 11 kts | 76° |
| 2026-05-04 15:28 | 51.15688 | -0.16992 | 211 ft | 9 kts | 33° |
| 2026-05-04 15:28 | 51.15738 | -0.16936 | 209 ft | 0 kts | 36° |